createdAt,value
2023-05-19T00:00:35.136Z,987.40
2023-05-19T00:01:04.805Z,987.30
2023-05-19T00:01:35.823Z,987.30
2023-05-19T00:02:06.536Z,987.40
2023-05-19T00:02:37.521Z,987.40
2023-05-19T00:03:08.408Z,987.50
2023-05-19T00:04:14.776Z,987.50
2023-05-19T00:04:42.417Z,987.50
2023-05-19T00:05:13.254Z,987.50
2023-05-19T00:05:43.942Z,987.50
2023-05-19T00:06:14.759Z,987.50
2023-05-19T00:06:45.978Z,987.50
2023-05-19T00:07:16.212Z,987.40
2023-05-19T00:07:47.804Z,987.40
2023-05-19T00:10:20.660Z,987.30
2023-05-19T00:12:30.638Z,987.40
2023-05-19T00:13:00.568Z,987.30
2023-05-19T00:13:38.515Z,987.50
2023-05-19T00:14:00.714Z,987.50
2023-05-19T00:14:30.086Z,987.20
2023-05-19T00:16:15.627Z,987.20
2023-05-19T00:16:34.543Z,987.40
2023-05-19T00:17:06.326Z,987.20
2023-05-19T00:17:39.820Z,987.20
2023-05-19T00:18:09.094Z,987.30
2023-05-19T00:18:40.480Z,987.30
2023-05-19T00:19:14.085Z,987.40
2023-05-19T00:19:41.909Z,987.40
2023-05-19T00:20:12.457Z,987.30
2023-05-19T00:20:43.078Z,987.30
2023-05-19T00:21:25.567Z,987.40
2023-05-19T00:21:44.999Z,987.40
2023-05-19T00:22:15.986Z,987.40
2023-05-19T00:22:47.938Z,987.40
2023-05-19T00:23:18.746Z,987.20
2023-05-19T00:24:20.062Z,987.40
2023-05-19T00:24:52.970Z,987.40
2023-05-19T00:25:22.583Z,987.20
2023-05-19T00:25:56.903Z,987.20
2023-05-19T00:26:27.878Z,987.30
2023-05-19T00:26:55.126Z,987.30
2023-05-19T00:27:26.812Z,987.20
2023-05-19T00:27:58.074Z,987.20
2023-05-19T00:28:28.952Z,987.20
2023-05-19T00:29:09.857Z,987.20
2023-05-19T00:29:30.895Z,987.20
2023-05-19T00:30:04.035Z,987.20
2023-05-19T00:30:36.981Z,987.20
2023-05-19T00:31:08.069Z,987.20
2023-05-19T00:31:34.674Z,987.20
2023-05-19T00:32:06.159Z,987.30
2023-05-19T00:32:43.830Z,987.30
2023-05-19T00:33:08.019Z,987.30
2023-05-19T00:34:03.288Z,987.30
2023-05-19T00:34:09.287Z,987.30
2023-05-19T00:34:58.999Z,987.30
2023-05-19T00:35:29.526Z,987.20
2023-05-19T00:35:42.593Z,987.20
2023-05-19T00:36:12.819Z,987.20
2023-05-19T00:36:43.848Z,987.20
2023-05-19T00:37:14.922Z,987.30
2023-05-19T00:37:45.665Z,987.30
2023-05-19T00:38:17.816Z,987.30
2023-05-19T00:38:48.937Z,987.30
2023-05-19T00:39:20.021Z,987.30
2023-05-19T00:39:50.314Z,987.30
2023-05-19T00:40:21.902Z,987.30
2023-05-19T00:40:52.423Z,987.30
2023-05-19T00:41:23.039Z,987.40
2023-05-19T00:41:54.550Z,987.40
2023-05-19T00:42:25.788Z,987.30
2023-05-19T00:43:13.270Z,987.30
2023-05-19T00:43:26.915Z,987.30
2023-05-19T00:43:59.699Z,987.30
2023-05-19T00:44:29.792Z,987.20
2023-05-19T00:45:01.579Z,987.20
2023-05-19T00:45:31.797Z,987.20
2023-05-19T00:46:02.200Z,987.20
2023-05-19T00:46:33.063Z,987.20
2023-05-19T00:47:03.839Z,987.20
2023-05-19T00:47:35.445Z,987.20
2023-05-19T00:48:06.627Z,987.30
2023-05-19T00:48:37.352Z,987.30
2023-05-19T00:49:43.723Z,987.30
2023-05-19T00:50:11.698Z,987.10
2023-05-19T00:51:12.428Z,987.20
2023-05-19T00:52:00.970Z,987.20
2023-05-19T00:52:14.155Z,987.30
2023-05-19T00:52:45.703Z,987.30
2023-05-19T00:53:15.982Z,987.40
2023-05-19T00:53:46.927Z,987.40
2023-05-19T00:54:18.886Z,987.10
2023-05-19T00:54:49.651Z,987.10
2023-05-19T00:55:20.130Z,987.10
2023-05-19T00:55:51.725Z,987.10
2023-05-19T00:56:22.083Z,987.20
2023-05-19T00:56:52.481Z,987.20
2023-05-19T00:57:25.077Z,987.20
2023-05-19T00:57:54.286Z,987.20
2023-05-19T00:58:26.040Z,987.30
2023-05-19T00:58:58.113Z,987.30
2023-05-19T00:59:28.607Z,987.40
2023-05-19T00:59:59.952Z,987.40
2023-05-19T01:00:35.242Z,987.10
2023-05-19T01:01:02.147Z,987.10
2023-05-19T01:01:32.144Z,987.30
2023-05-19T01:02:02.991Z,987.30
2023-05-19T01:02:33.661Z,987.20
2023-05-19T01:03:04.867Z,987.20
2023-05-19T01:03:37.080Z,987.20
2023-05-19T01:04:07.272Z,987.10
2023-05-19T01:04:38.258Z,987.10
2023-05-19T01:05:10.217Z,987.20
2023-05-19T01:05:40.528Z,987.20
2023-05-19T01:06:11.522Z,987.30
2023-05-19T01:06:42.059Z,987.30
2023-05-19T01:07:12.774Z,987.00
2023-05-19T01:07:44.126Z,987.00
2023-05-19T01:08:45.589Z,987.20
2023-05-19T01:09:16.807Z,987.10
2023-05-19T01:10:05.549Z,987.20
2023-05-19T01:10:21.226Z,987.20
2023-05-19T01:10:50.791Z,987.20
2023-05-19T01:11:22.042Z,987.30
2023-05-19T01:11:52.011Z,987.30
2023-05-19T01:12:23.094Z,987.10
2023-05-19T01:12:53.658Z,987.10
2023-05-19T01:13:24.918Z,987.10
2023-05-19T01:13:55.785Z,987.10
2023-05-19T01:14:27.193Z,987.10
2023-05-19T01:14:58.471Z,987.10
2023-05-19T01:15:29.856Z,987.20
2023-05-19T01:16:01.511Z,987.20
2023-05-19T01:16:31.672Z,987.10
2023-05-19T01:17:02.018Z,987.10
2023-05-19T01:17:32.846Z,987.30
2023-05-19T01:18:03.525Z,987.30
2023-05-19T01:18:34.686Z,987.10
2023-05-19T01:19:05.946Z,987.30
2023-05-19T01:19:37.262Z,987.30
2023-05-19T01:20:08.878Z,987.10
2023-05-19T01:20:39.906Z,987.10
2023-05-19T01:21:10.589Z,987.20
2023-05-19T01:21:41.916Z,987.20
2023-05-19T01:22:12.266Z,987.10
2023-05-19T01:22:43.447Z,987.10
2023-05-19T01:23:13.567Z,987.10
2023-05-19T01:23:44.773Z,987.10
2023-05-19T01:24:46.807Z,987.30
2023-05-19T01:25:18.630Z,987.10
2023-05-19T01:25:49.591Z,987.10
2023-05-19T01:26:21.193Z,987.00
2023-05-19T01:26:51.994Z,987.00
2023-05-19T01:27:21.745Z,987.20
2023-05-19T01:27:52.942Z,987.20
2023-05-19T01:28:23.747Z,987.00
2023-05-19T01:28:54.634Z,987.00
2023-05-19T01:29:25.780Z,987.20
2023-05-19T01:29:57.283Z,987.20
2023-05-19T01:30:28.903Z,987.10
2023-05-19T01:30:59.857Z,987.10
2023-05-19T01:31:31.106Z,987.00
2023-05-19T01:32:01.865Z,987.00
2023-05-19T01:32:32.367Z,987.10
2023-05-19T01:33:03.198Z,987.10
2023-05-19T01:33:34.462Z,987.20
2023-05-19T01:34:04.965Z,987.00
2023-05-19T01:34:36.283Z,987.00
2023-05-19T01:35:07.674Z,987.00
2023-05-19T01:35:38.466Z,987.00
2023-05-19T01:36:09.690Z,987.10
2023-05-19T01:36:41.065Z,987.10
2023-05-19T01:37:11.552Z,987.20
2023-05-19T01:37:41.996Z,987.20
2023-05-19T01:38:12.882Z,987.00
2023-05-19T01:38:43.844Z,987.00
2023-05-19T01:39:14.828Z,987.10
2023-05-19T01:39:45.842Z,987.10
2023-05-19T01:40:17.817Z,986.89
2023-05-19T01:40:47.831Z,986.89
2023-05-19T01:41:19.979Z,987.00
2023-05-19T01:41:51.132Z,987.00
2023-05-19T01:42:21.945Z,987.10
2023-05-19T01:42:52.200Z,987.10
2023-05-19T01:43:23.146Z,987.10
2023-05-19T01:43:53.750Z,987.10
2023-05-19T01:44:28.099Z,987.10
2023-05-19T01:44:57.090Z,987.10
2023-05-19T01:45:27.851Z,987.20
2023-05-19T01:45:57.910Z,987.20
2023-05-19T01:46:29.389Z,987.20
2023-05-19T01:47:00.841Z,987.20
2023-05-19T01:47:31.765Z,987.20
2023-05-19T01:48:02.752Z,987.20
2023-05-19T01:48:32.879Z,987.10
2023-05-19T01:49:21.921Z,987.20
2023-05-19T01:49:34.931Z,987.20
2023-05-19T01:50:06.402Z,987.10
2023-05-19T01:50:37.093Z,987.10
2023-05-19T01:51:07.977Z,987.10
2023-05-19T01:51:47.704Z,987.10
2023-05-19T01:52:11.177Z,987.20
2023-05-19T01:52:41.937Z,987.20
2023-05-19T01:53:12.761Z,987.10
2023-05-19T01:54:14.133Z,987.20
2023-05-19T01:54:44.940Z,987.20
2023-05-19T01:55:16.135Z,987.20
2023-05-19T01:55:47.115Z,987.20
2023-05-19T01:56:17.782Z,986.79
2023-05-19T01:56:48.995Z,986.79
2023-05-19T01:57:22.782Z,987.10
2023-05-19T01:58:09.065Z,987.10
2023-05-19T01:58:22.250Z,987.10
2023-05-19T01:58:53.472Z,987.10
2023-05-19T01:59:23.900Z,986.89
2023-05-19T01:59:54.847Z,986.89
2023-05-19T02:00:27.953Z,987.10
2023-05-19T02:00:57.173Z,987.10
2023-05-19T02:01:28.587Z,987.20
2023-05-19T02:02:00.792Z,987.20
2023-05-19T02:02:30.548Z,987.10
2023-05-19T02:03:03.282Z,987.10
2023-05-19T02:03:33.060Z,987.10
2023-05-19T02:04:03.587Z,987.10
2023-05-19T02:04:34.511Z,987.20
2023-05-19T02:05:05.333Z,987.00
2023-05-19T02:05:37.965Z,987.00
2023-05-19T02:06:11.821Z,987.20
2023-05-19T02:06:40.818Z,987.20
2023-05-19T02:07:31.136Z,987.10
2023-05-19T02:07:42.232Z,987.10
2023-05-19T02:08:13.346Z,986.79
2023-05-19T02:08:44.600Z,986.79
2023-05-19T02:09:15.846Z,987.00
2023-05-19T02:09:45.969Z,987.00
2023-05-19T02:10:17.378Z,987.00
2023-05-19T02:10:48.999Z,987.00
2023-05-19T02:11:18.390Z,987.10
2023-05-19T02:11:50.614Z,987.10
2023-05-19T02:12:21.983Z,987.10
2023-05-19T02:12:51.555Z,987.10
2023-05-19T02:13:22.360Z,986.89
2023-05-19T02:13:54.542Z,986.89
2023-05-19T02:14:24.746Z,987.10
2023-05-19T02:14:55.574Z,987.10
2023-05-19T02:15:28.071Z,986.89
2023-05-19T02:16:14.550Z,987.00
2023-05-19T02:16:29.165Z,987.00
2023-05-19T02:16:59.963Z,987.00
2023-05-19T02:17:31.654Z,987.20
2023-05-19T02:18:01.849Z,987.20
2023-05-19T02:18:32.852Z,986.89
2023-05-19T02:19:04.120Z,986.89
2023-05-19T02:19:34.145Z,987.10
2023-05-19T02:20:05.826Z,987.10
2023-05-19T02:20:37.177Z,986.79
2023-05-19T02:21:08.102Z,986.79
2023-05-19T02:21:39.324Z,986.79
2023-05-19T02:22:09.850Z,986.69
2023-05-19T02:22:40.698Z,986.69
2023-05-19T02:23:11.945Z,986.79
2023-05-19T02:23:42.942Z,986.79
2023-05-19T02:24:13.904Z,986.69
2023-05-19T02:24:44.539Z,986.69
2023-05-19T02:25:14.960Z,987.00
2023-05-19T02:25:46.157Z,987.00
2023-05-19T02:26:17.671Z,987.00
2023-05-19T02:26:47.945Z,987.00
2023-05-19T02:27:19.112Z,987.00
2023-05-19T02:27:50.813Z,987.00
2023-05-19T02:28:21.124Z,987.00
2023-05-19T02:29:23.270Z,986.89
2023-05-19T02:29:53.656Z,986.89
2023-05-19T02:30:25.557Z,986.89
2023-05-19T02:30:55.774Z,986.89
2023-05-19T02:31:28.573Z,986.89
2023-05-19T02:31:59.235Z,986.89
2023-05-19T02:32:30.497Z,987.10
2023-05-19T02:33:00.993Z,987.10
2023-05-19T02:33:48.409Z,986.89
2023-05-19T02:34:02.158Z,986.89
2023-05-19T02:34:32.664Z,986.89
2023-05-19T02:35:04.454Z,986.89
2023-05-19T02:35:34.775Z,987.10
2023-05-19T02:36:06.057Z,987.00
2023-05-19T02:36:37.656Z,987.00
2023-05-19T02:37:08.594Z,987.10
2023-05-19T02:37:39.269Z,987.10
2023-05-19T02:38:10.190Z,986.89
2023-05-19T02:38:41.150Z,986.89
2023-05-19T02:39:12.075Z,987.00
2023-05-19T02:39:43.290Z,987.00
2023-05-19T02:40:18.450Z,987.00
2023-05-19T02:40:44.736Z,987.00
2023-05-19T02:41:16.188Z,986.69
2023-05-19T02:41:48.332Z,986.69
2023-05-19T02:42:18.765Z,986.89
2023-05-19T02:42:49.840Z,986.89
2023-05-19T02:43:22.504Z,986.79
2023-05-19T02:43:52.821Z,986.79
2023-05-19T02:44:23.349Z,986.89
2023-05-19T02:44:54.482Z,986.89
2023-05-19T02:45:26.052Z,987.00
2023-05-19T02:45:55.687Z,987.00
2023-05-19T02:46:27.537Z,986.79
2023-05-19T02:46:57.325Z,986.79
2023-05-19T02:47:28.500Z,986.79
2023-05-19T02:48:00.611Z,986.79
2023-05-19T02:48:30.952Z,986.79
2023-05-19T02:49:02.932Z,986.79
2023-05-19T02:49:33.702Z,987.00
2023-05-19T02:50:05.120Z,987.00
2023-05-19T02:51:07.249Z,986.89
2023-05-19T02:52:07.111Z,987.00
2023-05-19T02:52:38.637Z,987.00
2023-05-19T02:53:10.579Z,986.79
2023-05-19T02:53:41.283Z,986.79
2023-05-19T02:54:12.759Z,986.79
2023-05-19T02:54:43.890Z,986.79
2023-05-19T02:55:15.405Z,986.79
2023-05-19T02:55:45.004Z,986.79
2023-05-19T02:56:16.913Z,987.10
2023-05-19T02:57:23.584Z,987.10
2023-05-19T02:57:36.265Z,986.79
2023-05-19T02:57:47.925Z,986.79
2023-05-19T02:58:19.572Z,986.89
2023-05-19T02:58:52.817Z,986.89
2023-05-19T02:59:25.381Z,986.89
2023-05-19T02:59:54.232Z,986.89
2023-05-19T03:00:27.319Z,986.79
2023-05-19T03:00:55.447Z,986.79
2023-05-19T03:01:26.585Z,986.89
2023-05-19T03:01:56.960Z,986.89
2023-05-19T03:02:28.706Z,986.79
2023-05-19T03:02:59.240Z,986.79
2023-05-19T03:03:31.842Z,986.79
2023-05-19T03:04:02.863Z,986.79
2023-05-19T03:04:33.088Z,986.89
2023-05-19T03:05:12.823Z,986.89
2023-05-19T03:05:34.540Z,986.69
2023-05-19T03:06:05.980Z,986.69
2023-05-19T03:06:52.890Z,986.89
2023-05-19T03:07:07.755Z,986.79
2023-05-19T03:07:40.101Z,986.79
2023-05-19T03:08:08.966Z,986.89
2023-05-19T03:08:42.348Z,986.89
2023-05-19T03:09:11.781Z,986.79
2023-05-19T03:09:41.945Z,986.79
2023-05-19T03:10:13.511Z,986.79
2023-05-19T03:10:43.909Z,986.79
2023-05-19T03:11:15.340Z,986.69
2023-05-19T03:11:47.223Z,986.69
2023-05-19T03:12:17.270Z,986.89
2023-05-19T03:12:48.505Z,986.89
2023-05-19T03:13:18.912Z,986.89
2023-05-19T03:13:50.146Z,986.89
2023-05-19T03:14:21.601Z,986.89
2023-05-19T03:14:52.996Z,986.89
2023-05-19T03:15:24.579Z,986.79
2023-05-19T03:15:54.492Z,986.79
2023-05-19T03:16:23.798Z,986.79
2023-05-19T03:16:54.776Z,986.79
2023-05-19T03:17:27.695Z,986.69
2023-05-19T03:17:57.720Z,986.69
2023-05-19T03:18:29.005Z,987.00
2023-05-19T03:19:00.237Z,987.00
2023-05-19T03:19:30.308Z,987.00
2023-05-19T03:20:03.086Z,987.00
2023-05-19T03:20:34.085Z,986.79
2023-05-19T03:21:04.697Z,986.79
2023-05-19T03:21:35.833Z,986.69
2023-05-19T03:22:06.542Z,986.69
2023-05-19T03:22:37.181Z,986.69
2023-05-19T03:23:09.386Z,986.89
2023-05-19T03:24:15.989Z,986.89
2023-05-19T03:24:41.847Z,986.59
2023-05-19T03:25:12.798Z,986.79
2023-05-19T03:25:43.647Z,986.79
2023-05-19T03:26:14.026Z,986.79
2023-05-19T03:26:45.525Z,986.79
2023-05-19T03:27:15.798Z,986.79
2023-05-19T03:27:46.603Z,986.79
2023-05-19T03:28:18.201Z,986.79
2023-05-19T03:28:50.425Z,986.79
2023-05-19T03:29:22.461Z,986.79
2023-05-19T03:29:53.968Z,986.79
2023-05-19T03:30:24.520Z,986.79
2023-05-19T03:30:54.917Z,986.79
2023-05-19T03:31:24.066Z,986.79
2023-05-19T03:31:55.164Z,986.79
2023-05-19T03:32:26.876Z,986.79
2023-05-19T03:32:57.465Z,986.79
2023-05-19T03:33:28.610Z,986.69
2023-05-19T03:33:57.839Z,986.69
2023-05-19T03:34:29.963Z,986.79
2023-05-19T03:35:01.503Z,986.79
2023-05-19T03:36:04.275Z,986.79
2023-05-19T03:36:34.126Z,986.79
2023-05-19T03:37:05.034Z,986.79
2023-05-19T03:37:35.873Z,986.59
2023-05-19T03:38:06.857Z,986.69
2023-05-19T03:38:36.997Z,986.69
2023-05-19T03:39:07.895Z,986.69
2023-05-19T03:39:40.285Z,986.69
2023-05-19T03:40:11.244Z,986.69
2023-05-19T03:40:42.421Z,986.69
2023-05-19T03:41:12.430Z,986.69
2023-05-19T03:41:43.079Z,986.69
2023-05-19T03:42:13.535Z,986.79
2023-05-19T03:42:44.936Z,986.79
2023-05-19T03:43:17.673Z,986.69
2023-05-19T03:43:47.389Z,986.69
2023-05-19T03:44:17.414Z,986.89
2023-05-19T03:44:48.708Z,986.89
2023-05-19T03:45:37.086Z,986.49
2023-05-19T03:45:51.795Z,986.49
2023-05-19T03:46:23.055Z,986.69
2023-05-19T03:46:53.365Z,986.69
2023-05-19T03:47:24.508Z,986.69
2023-05-19T03:47:55.113Z,986.69
2023-05-19T03:48:25.863Z,986.49
2023-05-19T03:48:56.196Z,986.49
2023-05-19T03:49:27.349Z,986.89
2023-05-19T03:49:58.508Z,986.89
2023-05-19T03:50:29.865Z,986.49
2023-05-19T03:51:02.433Z,986.49
2023-05-19T03:51:32.761Z,986.69
2023-05-19T03:52:03.820Z,986.69
2023-05-19T03:52:33.653Z,986.69
2023-05-19T03:53:04.587Z,986.69
2023-05-19T03:53:35.618Z,986.79
2023-05-19T03:54:06.522Z,986.59
2023-05-19T03:54:37.221Z,986.59
2023-05-19T03:55:09.047Z,986.69
2023-05-19T03:55:40.210Z,986.69
2023-05-19T03:56:12.194Z,986.89
2023-05-19T03:56:42.536Z,986.89
2023-05-19T03:57:13.368Z,986.59
2023-05-19T03:57:43.725Z,986.59
2023-05-19T03:58:14.662Z,986.69
2023-05-19T03:58:45.239Z,986.69
2023-05-19T03:59:47.748Z,986.79
2023-05-19T04:00:19.977Z,986.89
2023-05-19T04:00:50.920Z,986.89
2023-05-19T04:01:21.339Z,986.79
2023-05-19T04:01:51.863Z,986.79
2023-05-19T04:02:22.565Z,986.69
2023-05-19T04:02:53.512Z,986.69
2023-05-19T04:03:24.396Z,986.79
2023-05-19T04:03:55.442Z,986.79
2023-05-19T04:04:27.678Z,986.69
2023-05-19T04:04:58.414Z,986.69
2023-05-19T04:05:29.396Z,986.89
2023-05-19T04:06:00.309Z,986.89
2023-05-19T04:06:30.876Z,986.79
2023-05-19T04:07:01.905Z,986.79
2023-05-19T04:07:32.557Z,986.69
2023-05-19T04:08:03.927Z,986.69
2023-05-19T04:08:34.713Z,986.59
2023-05-19T04:09:05.743Z,986.59
2023-05-19T04:09:37.668Z,986.59
2023-05-19T04:10:09.636Z,986.69
2023-05-19T04:10:38.577Z,986.69
2023-05-19T04:11:27.864Z,986.89
2023-05-19T04:11:41.302Z,986.89
2023-05-19T04:12:12.746Z,986.79
2023-05-19T04:12:42.873Z,986.79
2023-05-19T04:13:13.253Z,986.69
2023-05-19T04:13:45.306Z,986.69
2023-05-19T04:14:15.284Z,986.69
2023-05-19T04:14:46.973Z,986.69
2023-05-19T04:15:17.662Z,986.79
2023-05-19T04:15:48.879Z,986.79
2023-05-19T04:16:20.329Z,986.69
2023-05-19T04:16:50.853Z,986.69
2023-05-19T04:17:25.100Z,986.79
2023-05-19T04:17:52.731Z,986.79
2023-05-19T04:18:23.170Z,986.79
2023-05-19T04:18:54.593Z,986.79
2023-05-19T04:19:25.562Z,986.69
2023-05-19T04:19:57.835Z,986.69
2023-05-19T04:20:27.563Z,986.89
2023-05-19T04:20:59.920Z,986.89
2023-05-19T04:21:30.306Z,986.89
2023-05-19T04:22:01.616Z,986.89
2023-05-19T04:22:32.229Z,986.79
2023-05-19T04:23:03.531Z,986.79
2023-05-19T04:23:33.768Z,986.69
2023-05-19T04:24:05.124Z,986.89
2023-05-19T04:24:35.501Z,986.89
2023-05-19T04:25:07.466Z,986.89
2023-05-19T04:25:37.815Z,986.89
2023-05-19T04:26:10.157Z,986.79
2023-05-19T04:26:40.632Z,986.79
2023-05-19T04:27:11.053Z,986.79
2023-05-19T04:27:41.829Z,986.79
2023-05-19T04:28:12.517Z,986.89
2023-05-19T04:29:14.773Z,986.79
2023-05-19T04:29:45.482Z,986.79
2023-05-19T04:30:18.536Z,986.89
2023-05-19T04:31:05.929Z,986.89
2023-05-19T04:31:18.720Z,986.89
2023-05-19T04:31:51.621Z,986.89
2023-05-19T04:32:22.791Z,987.00
2023-05-19T04:32:52.409Z,987.00
2023-05-19T04:33:22.701Z,986.79
2023-05-19T04:33:53.711Z,986.79
2023-05-19T04:34:24.717Z,986.69
2023-05-19T04:34:55.749Z,986.69
2023-05-19T04:35:26.853Z,986.89
2023-05-19T04:35:57.558Z,986.89
2023-05-19T04:36:29.644Z,986.89
2023-05-19T04:37:01.427Z,986.89
2023-05-19T04:37:31.562Z,987.00
2023-05-19T04:38:02.013Z,987.00
2023-05-19T04:38:33.178Z,986.89
2023-05-19T04:39:03.977Z,986.89
2023-05-19T04:39:34.688Z,987.10
2023-05-19T04:40:06.535Z,987.00
2023-05-19T04:41:08.638Z,986.89
2023-05-19T04:41:39.690Z,986.89
2023-05-19T04:42:10.816Z,986.89
2023-05-19T04:42:41.870Z,986.89
2023-05-19T04:43:13.044Z,987.00
2023-05-19T04:43:43.101Z,987.00
2023-05-19T04:44:13.647Z,987.00
2023-05-19T04:44:44.321Z,987.00
2023-05-19T04:45:16.008Z,987.00
2023-05-19T04:45:46.747Z,987.00
2023-05-19T04:46:19.337Z,987.10
2023-05-19T04:46:49.779Z,987.10
2023-05-19T04:47:20.846Z,987.10
2023-05-19T04:47:51.689Z,987.10
2023-05-19T04:48:22.481Z,986.89
2023-05-19T04:48:53.632Z,986.89
2023-05-19T04:49:23.340Z,987.00
2023-05-19T04:49:54.422Z,987.00
2023-05-19T04:50:26.739Z,987.00
2023-05-19T04:50:56.758Z,987.00
2023-05-19T04:51:30.718Z,986.79
2023-05-19T04:52:00.129Z,986.79
2023-05-19T04:52:30.925Z,986.89
2023-05-19T04:53:01.485Z,986.89
2023-05-19T04:53:32.802Z,986.89
2023-05-19T04:54:03.791Z,986.89
2023-05-19T04:54:33.645Z,986.89
2023-05-19T04:55:05.506Z,987.00
2023-05-19T04:55:36.034Z,987.00
2023-05-19T04:56:07.785Z,987.00
2023-05-19T04:56:38.913Z,987.00
2023-05-19T04:57:09.705Z,986.89
2023-05-19T04:57:41.285Z,986.89
2023-05-19T04:58:11.893Z,987.10
2023-05-19T04:58:42.298Z,987.10
2023-05-19T04:59:12.920Z,986.69
2023-05-19T04:59:44.484Z,986.69
2023-05-19T05:00:15.792Z,987.00
2023-05-19T05:00:52.003Z,987.00
2023-05-19T05:01:16.560Z,987.00
2023-05-19T05:01:48.306Z,987.00
2023-05-19T05:02:20.238Z,987.00
2023-05-19T05:02:50.747Z,987.00
2023-05-19T05:03:22.291Z,987.00
2023-05-19T05:03:52.328Z,987.00
2023-05-19T05:04:22.693Z,986.89
2023-05-19T05:04:53.563Z,986.89
2023-05-19T05:05:24.386Z,987.00
2023-05-19T05:05:55.408Z,987.00
2023-05-19T05:06:27.651Z,986.89
2023-05-19T05:06:57.875Z,986.89
2023-05-19T05:07:32.209Z,987.00
2023-05-19T05:08:00.847Z,987.00
2023-05-19T05:08:32.094Z,987.00
2023-05-19T05:09:02.283Z,987.00
2023-05-19T05:09:32.640Z,987.10
2023-05-19T05:10:17.137Z,987.10
2023-05-19T05:10:35.391Z,987.10
2023-05-19T05:11:05.638Z,986.79
2023-05-19T05:11:46.444Z,986.79
2023-05-19T05:12:08.919Z,987.10
2023-05-19T05:12:40.115Z,987.10
2023-05-19T05:13:11.830Z,987.10
2023-05-19T05:13:41.074Z,987.10
2023-05-19T05:14:12.401Z,987.10
2023-05-19T05:14:42.906Z,987.10
2023-05-19T05:15:55.356Z,986.89
2023-05-19T05:16:15.856Z,987.10
2023-05-19T05:16:46.785Z,987.10
2023-05-19T05:17:17.708Z,987.00
2023-05-19T05:18:21.893Z,987.20
2023-05-19T05:18:51.995Z,987.20
2023-05-19T05:19:22.846Z,986.89
2023-05-19T05:19:53.186Z,986.89
2023-05-19T05:21:32.924Z,987.00
2023-05-19T05:21:57.626Z,987.10
2023-05-19T05:22:28.400Z,987.00
2023-05-19T05:23:00.603Z,987.00
2023-05-19T05:23:31.215Z,987.00
2023-05-19T05:24:01.558Z,987.00
2023-05-19T05:24:32.402Z,986.69
2023-05-19T05:25:07.453Z,986.69
2023-05-19T05:25:34.207Z,986.89
2023-05-19T05:26:04.933Z,987.00
2023-05-19T05:26:35.937Z,987.00
2023-05-19T05:27:06.513Z,987.00
2023-05-19T05:27:37.968Z,987.00
2023-05-19T05:28:10.447Z,986.89
2023-05-19T05:28:40.674Z,986.89
2023-05-19T05:29:11.467Z,986.89
2023-05-19T05:29:41.839Z,986.89
2023-05-19T05:30:13.841Z,987.00
2023-05-19T05:30:58.216Z,987.00
2023-05-19T05:31:14.858Z,987.20
2023-05-19T05:31:45.725Z,987.20
2023-05-19T05:32:16.841Z,987.20
2023-05-19T05:32:48.244Z,987.20
2023-05-19T05:33:20.068Z,987.00
2023-05-19T05:33:51.595Z,987.00
2023-05-19T05:34:21.469Z,986.89
2023-05-19T05:34:53.117Z,986.89
2023-05-19T05:35:23.395Z,987.00
2023-05-19T05:35:53.546Z,987.00
2023-05-19T05:36:24.601Z,987.00
2023-05-19T05:36:55.832Z,987.00
2023-05-19T05:37:26.691Z,986.89
2023-05-19T05:37:57.708Z,986.89
2023-05-19T05:38:30.211Z,987.00
2023-05-19T05:39:01.141Z,987.00
2023-05-19T05:39:32.190Z,987.10
2023-05-19T05:40:03.073Z,987.10
2023-05-19T05:40:33.227Z,986.89
2023-05-19T05:41:03.693Z,986.89
2023-05-19T05:41:34.698Z,987.00
2023-05-19T05:42:06.062Z,987.30
2023-05-19T05:42:36.584Z,987.30
2023-05-19T05:43:08.511Z,986.89
2023-05-19T05:43:39.497Z,986.89
2023-05-19T05:44:19.395Z,987.40
2023-05-19T05:44:41.868Z,987.40
2023-05-19T05:45:12.961Z,987.00
2023-05-19T05:45:43.188Z,987.00
2023-05-19T05:46:13.723Z,986.79
2023-05-19T05:46:53.473Z,986.79
2023-05-19T05:48:23.268Z,987.00
2023-05-19T05:48:52.353Z,987.20
2023-05-19T05:49:21.141Z,987.00
2023-05-19T05:49:53.640Z,987.00
2023-05-19T05:50:30.927Z,987.00
2023-05-19T05:50:53.814Z,987.00
2023-05-19T05:51:24.684Z,987.10
2023-05-19T05:52:05.886Z,987.10
2023-05-19T05:52:56.666Z,987.10
2023-05-19T05:53:27.775Z,987.10
2023-05-19T05:53:59.750Z,987.10
2023-05-19T05:54:31.443Z,987.10
2023-05-19T05:55:02.136Z,987.10
2023-05-19T05:55:34.192Z,987.10
2023-05-19T05:56:34.231Z,987.00
2023-05-19T05:57:05.868Z,987.20
2023-05-19T05:57:35.998Z,987.20
2023-05-19T05:58:06.974Z,987.20
2023-05-19T05:58:37.870Z,987.20
2023-05-19T05:59:10.344Z,987.00
2023-05-19T05:59:41.337Z,987.00
2023-05-19T06:00:14.137Z,987.10
2023-05-19T06:00:43.369Z,987.10
2023-05-19T06:01:13.961Z,987.20
2023-05-19T06:01:44.294Z,987.20
2023-05-19T06:02:15.647Z,987.10
2023-05-19T06:02:46.224Z,987.10
2023-05-19T06:03:17.885Z,987.20
2023-05-19T06:03:48.325Z,987.20
2023-05-19T06:04:19.610Z,987.10
2023-05-19T06:04:51.128Z,987.10
2023-05-19T06:05:22.979Z,987.10
2023-05-19T06:05:53.660Z,987.10
2023-05-19T06:06:24.040Z,987.20
2023-05-19T06:06:54.327Z,987.20
2023-05-19T06:07:24.887Z,987.40
2023-05-19T06:07:55.733Z,987.40
2023-05-19T06:08:27.029Z,987.20
2023-05-19T06:08:57.864Z,987.20
2023-05-19T06:09:29.273Z,987.40
2023-05-19T06:10:02.244Z,987.40
2023-05-19T06:10:48.544Z,987.40
2023-05-19T06:11:03.087Z,987.40
2023-05-19T06:11:33.740Z,987.10
2023-05-19T06:12:04.303Z,987.10
2023-05-19T06:12:35.272Z,987.20
2023-05-19T06:13:06.273Z,987.10
2023-05-19T06:13:36.934Z,987.10
2023-05-19T06:14:08.112Z,987.30
2023-05-19T06:14:40.397Z,987.30
2023-05-19T06:15:12.167Z,987.20
2023-05-19T06:15:42.513Z,987.20
2023-05-19T06:16:13.928Z,987.20
2023-05-19T06:16:43.743Z,987.20
2023-05-19T06:17:14.980Z,987.20
2023-05-19T06:17:45.203Z,987.20
2023-05-19T06:18:16.195Z,987.30
2023-05-19T06:18:53.894Z,987.30
2023-05-19T06:19:18.370Z,987.20
2023-05-19T06:19:50.193Z,987.20
2023-05-19T06:20:21.399Z,987.30
2023-05-19T06:20:52.504Z,987.30
2023-05-19T06:21:24.164Z,987.20
2023-05-19T06:21:54.082Z,987.20
2023-05-19T06:22:23.929Z,987.20
2023-05-19T06:22:55.041Z,987.20
2023-05-19T06:23:26.083Z,987.20
2023-05-19T06:23:57.483Z,987.20
2023-05-19T06:24:27.816Z,987.20
2023-05-19T06:24:59.474Z,987.20
2023-05-19T06:25:31.438Z,987.30
2023-05-19T06:26:02.232Z,987.30
2023-05-19T06:26:33.122Z,987.30
2023-05-19T06:27:04.428Z,987.30
2023-05-19T06:27:35.217Z,987.30
2023-05-19T06:28:05.552Z,987.30
2023-05-19T06:28:36.853Z,987.30
2023-05-19T06:29:07.248Z,987.10
2023-05-19T06:29:38.041Z,987.10
2023-05-19T06:30:11.122Z,987.40
2023-05-19T06:30:42.185Z,987.40
2023-05-19T06:31:12.951Z,987.20
2023-05-19T06:31:43.370Z,987.20
2023-05-19T06:32:14.370Z,987.20
2023-05-19T06:32:45.322Z,987.20
2023-05-19T06:33:15.549Z,987.30
2023-05-19T06:33:46.116Z,987.30
2023-05-19T06:34:17.519Z,987.30
2023-05-19T06:34:48.153Z,987.30
2023-05-19T06:35:20.593Z,987.10
2023-05-19T06:35:51.691Z,987.10
2023-05-19T06:36:22.825Z,986.89
2023-05-19T06:36:53.946Z,986.89
2023-05-19T06:37:24.120Z,987.10
2023-05-19T06:37:54.288Z,987.10
2023-05-19T06:38:25.040Z,987.20
2023-05-19T06:38:55.765Z,987.20
2023-05-19T06:39:27.034Z,987.20
2023-05-19T06:39:58.224Z,987.20
2023-05-19T06:40:29.304Z,987.10
2023-05-19T06:41:01.639Z,987.10
2023-05-19T06:41:32.330Z,987.00
2023-05-19T06:42:03.604Z,987.00
2023-05-19T06:42:33.977Z,987.00
2023-05-19T06:43:05.306Z,987.00
2023-05-19T06:43:36.187Z,987.00